sensor_id;sensor_type;location;lat;lon;timestamp;P1;durP1;ratioP1;P2;durP2;ratioP2
31760;SDS011;18335;51.486;7.562;2023-08-30T00:01:34;12.77;;;6.50;;
31760;SDS011;18335;51.486;7.562;2023-08-30T00:04:01;12.63;;;6.82;;
31760;SDS011;18335;51.486;7.562;2023-08-30T00:06:28;9.52;;;6.22;;
31760;SDS011;18335;51.486;7.562;2023-08-30T00:08:56;9.10;;;5.68;;
31760;SDS011;18335;51.486;7.562;2023-08-30T00:11:23;11.80;;;6.63;;
31760;SDS011;18335;51.486;7.562;2023-08-30T00:13:50;11.45;;;5.88;;
31760;SDS011;18335;51.486;7.562;2023-08-30T00:16:17;11.10;;;6.82;;
31760;SDS011;18335;51.486;7.562;2023-08-30T00:18:44;9.55;;;5.78;;
31760;SDS011;18335;51.486;7.562;2023-08-30T00:21:11;10.40;;;6.30;;
31760;SDS011;18335;51.486;7.562;2023-08-30T00:23:37;15.38;;;7.53;;
31760;SDS011;18335;51.486;7.562;2023-08-30T00:26:06;15.98;;;7.93;;
31760;SDS011;18335;51.486;7.562;2023-08-30T00:28:32;13.65;;;7.78;;
31760;SDS011;18335;51.486;7.562;2023-08-30T00:31:00;13.85;;;7.75;;
31760;SDS011;18335;51.486;7.562;2023-08-30T00:33:27;11.02;;;6.68;;
31760;SDS011;18335;51.486;7.562;2023-08-30T00:35:57;11.15;;;7.15;;
31760;SDS011;18335;51.486;7.562;2023-08-30T00:38:25;11.43;;;7.45;;
31760;SDS011;18335;51.486;7.562;2023-08-30T00:40:52;12.00;;;6.90;;
31760;SDS011;18335;51.486;7.562;2023-08-30T00:43:20;11.68;;;7.32;;
31760;SDS011;18335;51.486;7.562;2023-08-30T00:45:47;16.40;;;7.85;;
31760;SDS011;18335;51.486;7.562;2023-08-30T00:48:15;12.55;;;8.02;;
31760;SDS011;18335;51.486;7.562;2023-08-30T00:50:45;15.10;;;7.53;;
31760;SDS011;18335;51.486;7.562;2023-08-30T00:53:12;13.85;;;7.47;;
31760;SDS011;18335;51.486;7.562;2023-08-30T00:55:42;15.75;;;8.07;;
31760;SDS011;18335;51.486;7.562;2023-08-30T00:58:09;13.50;;;7.57;;
31760;SDS011;18335;51.486;7.562;2023-08-30T01:00:38;13.20;;;7.63;;
31760;SDS011;18335;51.486;7.562;2023-08-30T01:03:05;12.57;;;7.95;;
31760;SDS011;18335;51.486;7.562;2023-08-30T01:05:33;12.55;;;7.05;;
31760;SDS011;18335;51.486;7.562;2023-08-30T01:08:00;13.55;;;7.85;;
31760;SDS011;18335;51.486;7.562;2023-08-30T01:13:18;13.18;;;8.52;;
31760;SDS011;18335;51.486;7.562;2023-08-30T01:15:48;14.32;;;7.38;;
31760;SDS011;18335;51.486;7.562;2023-08-30T01:18:17;15.32;;;8.35;;
31760;SDS011;18335;51.486;7.562;2023-08-30T01:20:45;14.35;;;8.40;;
31760;SDS011;18335;51.486;7.562;2023-08-30T01:23:16;15.93;;;9.20;;
31760;SDS011;18335;51.486;7.562;2023-08-30T01:25:53;14.52;;;8.27;;
31760;SDS011;18335;51.486;7.562;2023-08-30T01:28:26;17.13;;;8.52;;
31760;SDS011;18335;51.486;7.562;2023-08-30T01:30:55;14.50;;;8.63;;
31760;SDS011;18335;51.486;7.562;2023-08-30T01:33:26;16.08;;;9.48;;
31760;SDS011;18335;51.486;7.562;2023-08-30T01:35:54;14.93;;;8.88;;
31760;SDS011;18335;51.486;7.562;2023-08-30T01:38:23;14.95;;;8.77;;
31760;SDS011;18335;51.486;7.562;2023-08-30T01:40:51;15.50;;;8.95;;
31760;SDS011;18335;51.486;7.562;2023-08-30T01:43:19;14.80;;;9.35;;
31760;SDS011;18335;51.486;7.562;2023-08-30T01:45:49;23.25;;;9.15;;
31760;SDS011;18335;51.486;7.562;2023-08-30T01:48:16;14.15;;;9.40;;
31760;SDS011;18335;51.486;7.562;2023-08-30T01:50:50;15.43;;;8.65;;
31760;SDS011;18335;51.486;7.562;2023-08-30T01:53:19;18.08;;;9.93;;
31760;SDS011;18335;51.486;7.562;2023-08-30T01:55:47;15.60;;;9.23;;
31760;SDS011;18335;51.486;7.562;2023-08-30T01:58:14;14.45;;;9.95;;
31760;SDS011;18335;51.486;7.562;2023-08-30T02:00:41;15.15;;;9.38;;
31760;SDS011;18335;51.486;7.562;2023-08-30T02:03:10;15.63;;;10.07;;
31760;SDS011;18335;51.486;7.562;2023-08-30T02:05:39;15.60;;;10.25;;
31760;SDS011;18335;51.486;7.562;2023-08-30T02:08:14;17.90;;;9.52;;
31760;SDS011;18335;51.486;7.562;2023-08-30T02:10:46;17.52;;;10.68;;
31760;SDS011;18335;51.486;7.562;2023-08-30T02:13:18;17.08;;;10.55;;
31760;SDS011;18335;51.486;7.562;2023-08-30T02:15:51;17.20;;;9.40;;
31760;SDS011;18335;51.486;7.562;2023-08-30T02:18:22;15.18;;;10.40;;
31760;SDS011;18335;51.486;7.562;2023-08-30T02:20:53;18.40;;;10.80;;
31760;SDS011;18335;51.486;7.562;2023-08-30T02:23:22;15.55;;;9.65;;
31760;SDS011;18335;51.486;7.562;2023-08-30T02:25:49;17.73;;;11.10;;
31760;SDS011;18335;51.486;7.562;2023-08-30T02:28:16;16.42;;;10.73;;
31760;SDS011;18335;51.486;7.562;2023-08-30T02:30:42;17.08;;;10.48;;
31760;SDS011;18335;51.486;7.562;2023-08-30T02:33:09;14.70;;;10.00;;
31760;SDS011;18335;51.486;7.562;2023-08-30T02:35:38;18.25;;;10.85;;
31760;SDS011;18335;51.486;7.562;2023-08-30T02:38:05;18.70;;;10.15;;
31760;SDS011;18335;51.486;7.562;2023-08-30T02:40:32;15.77;;;10.07;;
31760;SDS011;18335;51.486;7.562;2023-08-30T02:42:59;15.00;;;9.70;;
31760;SDS011;18335;51.486;7.562;2023-08-30T02:45:26;18.40;;;10.55;;
31760;SDS011;18335;51.486;7.562;2023-08-30T02:47:54;15.82;;;10.80;;
31760;SDS011;18335;51.486;7.562;2023-08-30T02:50:22;16.77;;;10.50;;
31760;SDS011;18335;51.486;7.562;2023-08-30T02:52:50;17.83;;;10.65;;
31760;SDS011;18335;51.486;7.562;2023-08-30T02:55:17;17.95;;;10.30;;
31760;SDS011;18335;51.486;7.562;2023-08-30T02:57:44;20.10;;;10.55;;
31760;SDS011;18335;51.486;7.562;2023-08-30T03:00:12;17.63;;;10.50;;
31760;SDS011;18335;51.486;7.562;2023-08-30T03:02:39;18.85;;;10.63;;
31760;SDS011;18335;51.486;7.562;2023-08-30T03:05:06;16.40;;;10.57;;
31760;SDS011;18335;51.486;7.562;2023-08-30T03:07:34;17.20;;;10.75;;
31760;SDS011;18335;51.486;7.562;2023-08-30T03:10:02;18.63;;;10.18;;
31760;SDS011;18335;51.486;7.562;2023-08-30T03:12:30;18.17;;;9.88;;
31760;SDS011;18335;51.486;7.562;2023-08-30T03:14:58;16.50;;;10.75;;
31760;SDS011;18335;51.486;7.562;2023-08-30T03:17:25;15.45;;;10.10;;
31760;SDS011;18335;51.486;7.562;2023-08-30T03:19:52;16.55;;;10.40;;
31760;SDS011;18335;51.486;7.562;2023-08-30T03:22:19;16.30;;;9.20;;
31760;SDS011;18335;51.486;7.562;2023-08-30T03:24:47;18.80;;;11.20;;
31760;SDS011;18335;51.486;7.562;2023-08-30T03:27:16;13.63;;;9.05;;
31760;SDS011;18335;51.486;7.562;2023-08-30T03:29:44;18.90;;;11.25;;
31760;SDS011;18335;51.486;7.562;2023-08-30T03:32:14;18.23;;;10.77;;
31760;SDS011;18335;51.486;7.562;2023-08-30T03:34:43;16.63;;;10.57;;
31760;SDS011;18335;51.486;7.562;2023-08-30T03:37:10;18.40;;;11.75;;
31760;SDS011;18335;51.486;7.562;2023-08-30T03:39:37;17.25;;;10.98;;
31760;SDS011;18335;51.486;7.562;2023-08-30T03:42:04;19.95;;;11.98;;
31760;SDS011;18335;51.486;7.562;2023-08-30T03:44:32;15.85;;;10.38;;
31760;SDS011;18335;51.486;7.562;2023-08-30T03:46:59;21.70;;;13.15;;
31760;SDS011;18335;51.486;7.562;2023-08-30T03:49:26;21.80;;;11.88;;
31760;SDS011;18335;51.486;7.562;2023-08-30T03:51:53;20.70;;;12.45;;
31760;SDS011;18335;51.486;7.562;2023-08-30T03:54:19;19.33;;;12.95;;
31760;SDS011;18335;51.486;7.562;2023-08-30T03:56:46;22.20;;;12.05;;
31760;SDS011;18335;51.486;7.562;2023-08-30T03:59:13;18.63;;;12.45;;
31760;SDS011;18335;51.486;7.562;2023-08-30T04:01:41;18.45;;;12.98;;
31760;SDS011;18335;51.486;7.562;2023-08-30T04:04:08;19.27;;;12.45;;
31760;SDS011;18335;51.486;7.562;2023-08-30T04:06:34;23.02;;;14.32;;
31760;SDS011;18335;51.486;7.562;2023-08-30T04:09:01;25.30;;;13.90;;
31760;SDS011;18335;51.486;7.562;2023-08-30T04:11:28;23.73;;;13.70;;
31760;SDS011;18335;51.486;7.562;2023-08-30T04:13:55;21.55;;;13.10;;
31760;SDS011;18335;51.486;7.562;2023-08-30T04:16:21;20.50;;;13.80;;
31760;SDS011;18335;51.486;7.562;2023-08-30T04:18:50;20.05;;;13.10;;
31760;SDS011;18335;51.486;7.562;2023-08-30T04:21:17;21.88;;;12.65;;
31760;SDS011;18335;51.486;7.562;2023-08-30T04:23:44;20.58;;;12.55;;
31760;SDS011;18335;51.486;7.562;2023-08-30T04:26:11;17.60;;;11.80;;
31760;SDS011;18335;51.486;7.562;2023-08-30T04:28:38;20.00;;;12.10;;
31760;SDS011;18335;51.486;7.562;2023-08-30T04:31:05;18.63;;;12.75;;
31760;SDS011;18335;51.486;7.562;2023-08-30T04:33:31;21.38;;;13.27;;
31760;SDS011;18335;51.486;7.562;2023-08-30T04:36:01;21.23;;;13.07;;
31760;SDS011;18335;51.486;7.562;2023-08-30T04:38:29;19.77;;;13.40;;
31760;SDS011;18335;51.486;7.562;2023-08-30T04:40:57;21.73;;;13.00;;
31760;SDS011;18335;51.486;7.562;2023-08-30T04:43:25;23.45;;;15.00;;
31760;SDS011;18335;51.486;7.562;2023-08-30T04:45:53;22.13;;;15.25;;
31760;SDS011;18335;51.486;7.562;2023-08-30T04:48:22;22.23;;;14.90;;
31760;SDS011;18335;51.486;7.562;2023-08-30T04:50:57;25.63;;;16.02;;
31760;SDS011;18335;51.486;7.562;2023-08-30T04:53:26;20.75;;;15.40;;
31760;SDS011;18335;51.486;7.562;2023-08-30T04:55:52;24.73;;;15.27;;
31760;SDS011;18335;51.486;7.562;2023-08-30T04:58:19;26.27;;;16.75;;
31760;SDS011;18335;51.486;7.562;2023-08-30T05:00:46;25.05;;;17.48;;
31760;SDS011;18335;51.486;7.562;2023-08-30T05:03:13;28.75;;;16.80;;
31760;SDS011;18335;51.486;7.562;2023-08-30T05:05:44;25.35;;;16.35;;
31760;SDS011;18335;51.486;7.562;2023-08-30T05:08:13;24.10;;;15.68;;
31760;SDS011;18335;51.486;7.562;2023-08-30T05:10:41;23.52;;;15.52;;
31760;SDS011;18335;51.486;7.562;2023-08-30T05:13:08;26.92;;;16.67;;
31760;SDS011;18335;51.486;7.562;2023-08-30T05:15:36;26.63;;;15.43;;
31760;SDS011;18335;51.486;7.562;2023-08-30T05:18:03;25.58;;;15.23;;
31760;SDS011;18335;51.486;7.562;2023-08-30T05:20:31;23.90;;;14.95;;
31760;SDS011;18335;51.486;7.562;2023-08-30T05:22:58;23.50;;;15.15;;
31760;SDS011;18335;51.486;7.562;2023-08-30T05:25:26;25.23;;;14.75;;
31760;SDS011;18335;51.486;7.562;2023-08-30T05:27:54;22.77;;;14.60;;
31760;SDS011;18335;51.486;7.562;2023-08-30T05:30:20;22.13;;;13.57;;
31760;SDS011;18335;51.486;7.562;2023-08-30T05:32:51;20.48;;;13.77;;
31760;SDS011;18335;51.486;7.562;2023-08-30T05:35:47;21.92;;;15.35;;
31760;SDS011;18335;51.486;7.562;2023-08-30T05:38:49;25.35;;;15.57;;
31760;SDS011;18335;51.486;7.562;2023-08-30T05:41:32;22.05;;;15.43;;
31760;SDS011;18335;51.486;7.562;2023-08-30T05:44:00;24.98;;;15.88;;
31760;SDS011;18335;51.486;7.562;2023-08-30T05:46:27;25.80;;;17.27;;
31760;SDS011;18335;51.486;7.562;2023-08-30T05:48:54;27.55;;;16.88;;
31760;SDS011;18335;51.486;7.562;2023-08-30T05:51:22;27.58;;;17.60;;
31760;SDS011;18335;51.486;7.562;2023-08-30T05:53:49;27.38;;;17.85;;
31760;SDS011;18335;51.486;7.562;2023-08-30T05:56:16;26.52;;;18.85;;
31760;SDS011;18335;51.486;7.562;2023-08-30T05:58:43;26.23;;;16.38;;
31760;SDS011;18335;51.486;7.562;2023-08-30T06:01:11;25.63;;;17.20;;
31760;SDS011;18335;51.486;7.562;2023-08-30T06:03:38;26.67;;;16.38;;
31760;SDS011;18335;51.486;7.562;2023-08-30T06:06:05;28.27;;;18.00;;
31760;SDS011;18335;51.486;7.562;2023-08-30T06:08:32;27.65;;;18.55;;
31760;SDS011;18335;51.486;7.562;2023-08-30T06:10:59;25.77;;;16.85;;
31760;SDS011;18335;51.486;7.562;2023-08-30T06:13:26;29.30;;;18.30;;
31760;SDS011;18335;51.486;7.562;2023-08-30T06:15:52;26.52;;;18.52;;
31760;SDS011;18335;51.486;7.562;2023-08-30T06:18:20;29.55;;;18.25;;
31760;SDS011;18335;51.486;7.562;2023-08-30T06:20:47;27.88;;;17.92;;
31760;SDS011;18335;51.486;7.562;2023-08-30T06:23:14;24.55;;;16.17;;
31760;SDS011;18335;51.486;7.562;2023-08-30T06:25:44;27.30;;;17.25;;
31760;SDS011;18335;51.486;7.562;2023-08-30T06:28:11;26.58;;;16.40;;
31760;SDS011;18335;51.486;7.562;2023-08-30T06:30:37;26.25;;;17.80;;
31760;SDS011;18335;51.486;7.562;2023-08-30T06:33:04;26.58;;;17.48;;
31760;SDS011;18335;51.486;7.562;2023-08-30T06:35:35;26.30;;;18.88;;
31760;SDS011;18335;51.486;7.562;2023-08-30T06:38:04;27.00;;;18.55;;
31760;SDS011;18335;51.486;7.562;2023-08-30T06:40:32;28.50;;;17.90;;
31760;SDS011;18335;51.486;7.562;2023-08-30T06:42:59;30.33;;;20.35;;
31760;SDS011;18335;51.486;7.562;2023-08-30T06:45:26;31.88;;;21.00;;
31760;SDS011;18335;51.486;7.562;2023-08-30T06:47:53;31.77;;;20.33;;
31760;SDS011;18335;51.486;7.562;2023-08-30T06:50:19;30.50;;;20.55;;
31760;SDS011;18335;51.486;7.562;2023-08-30T06:52:48;29.10;;;18.98;;
31760;SDS011;18335;51.486;7.562;2023-08-30T06:55:14;27.98;;;19.23;;
31760;SDS011;18335;51.486;7.562;2023-08-30T06:57:41;30.52;;;19.70;;
31760;SDS011;18335;51.486;7.562;2023-08-30T07:00:14;27.17;;;19.15;;
31760;SDS011;18335;51.486;7.562;2023-08-30T07:02:41;27.80;;;18.60;;
31760;SDS011;18335;51.486;7.562;2023-08-30T07:05:10;27.88;;;18.73;;
31760;SDS011;18335;51.486;7.562;2023-08-30T07:07:37;32.28;;;21.10;;
31760;SDS011;18335;51.486;7.562;2023-08-30T07:10:06;31.70;;;22.52;;
31760;SDS011;18335;51.486;7.562;2023-08-30T07:12:33;29.42;;;20.80;;
31760;SDS011;18335;51.486;7.562;2023-08-30T07:15:01;31.13;;;23.08;;
31760;SDS011;18335;51.486;7.562;2023-08-30T07:17:29;33.38;;;22.08;;
31760;SDS011;18335;51.486;7.562;2023-08-30T07:19:56;33.95;;;23.00;;
31760;SDS011;18335;51.486;7.562;2023-08-30T07:22:23;31.40;;;22.98;;
31760;SDS011;18335;51.486;7.562;2023-08-30T07:24:50;30.85;;;22.33;;
31760;SDS011;18335;51.486;7.562;2023-08-30T07:27:18;32.88;;;20.90;;
31760;SDS011;18335;51.486;7.562;2023-08-30T07:29:45;31.95;;;22.85;;
31760;SDS011;18335;51.486;7.562;2023-08-30T07:32:12;32.10;;;21.35;;
31760;SDS011;18335;51.486;7.562;2023-08-30T07:34:39;33.05;;;21.17;;
31760;SDS011;18335;51.486;7.562;2023-08-30T07:37:15;30.60;;;19.85;;
31760;SDS011;18335;51.486;7.562;2023-08-30T07:39:43;28.98;;;20.20;;
31760;SDS011;18335;51.486;7.562;2023-08-30T07:42:10;27.55;;;19.52;;
31760;SDS011;18335;51.486;7.562;2023-08-30T07:44:38;29.70;;;20.05;;
31760;SDS011;18335;51.486;7.562;2023-08-30T07:47:04;27.55;;;20.45;;
31760;SDS011;18335;51.486;7.562;2023-08-30T07:49:31;31.98;;;20.73;;
31760;SDS011;18335;51.486;7.562;2023-08-30T07:51:58;27.25;;;18.73;;
31760;SDS011;18335;51.486;7.562;2023-08-30T07:54:25;27.13;;;17.20;;
31760;SDS011;18335;51.486;7.562;2023-08-30T07:56:52;24.40;;;17.42;;
31760;SDS011;18335;51.486;7.562;2023-08-30T07:59:18;28.27;;;18.15;;
31760;SDS011;18335;51.486;7.562;2023-08-30T08:01:47;25.60;;;16.80;;
31760;SDS011;18335;51.486;7.562;2023-08-30T08:04:14;34.25;;;19.00;;
31760;SDS011;18335;51.486;7.562;2023-08-30T08:06:40;24.23;;;16.80;;
31760;SDS011;18335;51.486;7.562;2023-08-30T08:09:07;24.73;;;16.63;;
31760;SDS011;18335;51.486;7.562;2023-08-30T08:11:34;25.58;;;16.75;;
31760;SDS011;18335;51.486;7.562;2023-08-30T08:14:01;27.95;;;17.25;;
31760;SDS011;18335;51.486;7.562;2023-08-30T08:16:28;28.83;;;16.55;;
31760;SDS011;18335;51.486;7.562;2023-08-30T08:18:56;23.02;;;15.50;;
31760;SDS011;18335;51.486;7.562;2023-08-30T08:21:24;23.50;;;14.93;;
31760;SDS011;18335;51.486;7.562;2023-08-30T08:23:51;23.27;;;14.15;;
31760;SDS011;18335;51.486;7.562;2023-08-30T08:26:18;18.77;;;11.77;;
31760;SDS011;18335;51.486;7.562;2023-08-30T08:28:45;19.33;;;11.63;;
31760;SDS011;18335;51.486;7.562;2023-08-30T08:31:12;19.27;;;11.82;;
31760;SDS011;18335;51.486;7.562;2023-08-30T08:33:39;18.52;;;11.80;;
31760;SDS011;18335;51.486;7.562;2023-08-30T08:36:08;22.90;;;11.75;;
31760;SDS011;18335;51.486;7.562;2023-08-30T08:38:34;18.77;;;10.25;;
31760;SDS011;18335;51.486;7.562;2023-08-30T08:41:04;17.67;;;11.18;;
31760;SDS011;18335;51.486;7.562;2023-08-30T08:43:32;18.52;;;10.40;;
31760;SDS011;18335;51.486;7.562;2023-08-30T08:46:02;17.00;;;8.90;;
31760;SDS011;18335;51.486;7.562;2023-08-30T08:48:33;15.63;;;10.00;;
31760;SDS011;18335;51.486;7.562;2023-08-30T08:51:05;17.45;;;8.68;;
31760;SDS011;18335;51.486;7.562;2023-08-30T08:53:33;15.85;;;8.70;;
31760;SDS011;18335;51.486;7.562;2023-08-30T08:56:00;15.82;;;8.88;;
31760;SDS011;18335;51.486;7.562;2023-08-30T08:58:32;14.35;;;9.00;;
31760;SDS011;18335;51.486;7.562;2023-08-30T09:01:00;16.52;;;9.07;;
31760;SDS011;18335;51.486;7.562;2023-08-30T09:03:27;13.75;;;7.72;;
31760;SDS011;18335;51.486;7.562;2023-08-30T09:05:55;15.85;;;7.75;;
31760;SDS011;18335;51.486;7.562;2023-08-30T09:08:22;13.75;;;7.57;;
31760;SDS011;18335;51.486;7.562;2023-08-30T09:10:51;14.05;;;6.30;;
31760;SDS011;18335;51.486;7.562;2023-08-30T09:13:17;11.38;;;5.05;;
31760;SDS011;18335;51.486;7.562;2023-08-30T09:15:46;9.43;;;4.28;;
31760;SDS011;18335;51.486;7.562;2023-08-30T09:18:14;8.65;;;3.88;;
31760;SDS011;18335;51.486;7.562;2023-08-30T09:20:42;17.65;;;4.40;;
31760;SDS011;18335;51.486;7.562;2023-08-30T09:23:15;10.75;;;4.22;;
31760;SDS011;18335;51.486;7.562;2023-08-30T09:25:43;7.78;;;4.35;;
31760;SDS011;18335;51.486;7.562;2023-08-30T09:28:12;9.35;;;4.10;;
31760;SDS011;18335;51.486;7.562;2023-08-30T09:30:39;9.63;;;3.67;;
31760;SDS011;18335;51.486;7.562;2023-08-30T09:33:06;10.07;;;3.60;;
31760;SDS011;18335;51.486;7.562;2023-08-30T09:35:34;10.55;;;4.35;;
31760;SDS011;18335;51.486;7.562;2023-08-30T09:38:15;12.15;;;4.07;;
31760;SDS011;18335;51.486;7.562;2023-08-30T09:40:43;8.65;;;3.75;;
31760;SDS011;18335;51.486;7.562;2023-08-30T09:43:10;10.45;;;3.90;;
31760;SDS011;18335;51.486;7.562;2023-08-30T09:45:38;9.60;;;4.00;;
31760;SDS011;18335;51.486;7.562;2023-08-30T09:48:06;8.13;;;3.55;;
31760;SDS011;18335;51.486;7.562;2023-08-30T09:50:34;18.90;;;4.80;;
31760;SDS011;18335;51.486;7.562;2023-08-30T09:53:02;11.10;;;4.05;;
31760;SDS011;18335;51.486;7.562;2023-08-30T09:55:33;7.20;;;3.30;;
31760;SDS011;18335;51.486;7.562;2023-08-30T09:58:01;8.90;;;3.10;;
31760;SDS011;18335;51.486;7.562;2023-08-30T10:00:31;19.70;;;4.15;;
31760;SDS011;18335;51.486;7.562;2023-08-30T10:02:59;11.00;;;3.67;;
31760;SDS011;18335;51.486;7.562;2023-08-30T10:05:27;10.48;;;3.45;;
31760;SDS011;18335;51.486;7.562;2023-08-30T10:07:54;8.85;;;3.55;;
31760;SDS011;18335;51.486;7.562;2023-08-30T10:10:21;8.25;;;3.40;;
31760;SDS011;18335;51.486;7.562;2023-08-30T10:12:48;8.55;;;3.30;;
31760;SDS011;18335;51.486;7.562;2023-08-30T10:15:16;12.15;;;4.07;;
31760;SDS011;18335;51.486;7.562;2023-08-30T10:17:45;8.35;;;3.22;;
31760;SDS011;18335;51.486;7.562;2023-08-30T10:20:12;10.02;;;3.45;;
31760;SDS011;18335;51.486;7.562;2023-08-30T10:22:39;8.20;;;3.50;;
31760;SDS011;18335;51.486;7.562;2023-08-30T10:25:08;6.00;;;3.40;;
31760;SDS011;18335;51.486;7.562;2023-08-30T10:27:39;8.88;;;3.80;;
31760;SDS011;18335;51.486;7.562;2023-08-30T10:30:09;8.10;;;3.08;;
31760;SDS011;18335;51.486;7.562;2023-08-30T10:32:40;7.78;;;3.78;;
31760;SDS011;18335;51.486;7.562;2023-08-30T10:35:11;5.38;;;3.08;;
31760;SDS011;18335;51.486;7.562;2023-08-30T10:37:39;6.75;;;3.60;;
31760;SDS011;18335;51.486;7.562;2023-08-30T10:40:06;9.30;;;3.80;;
31760;SDS011;18335;51.486;7.562;2023-08-30T10:42:34;9.50;;;3.42;;
31760;SDS011;18335;51.486;7.562;2023-08-30T10:45:02;8.35;;;3.50;;
31760;SDS011;18335;51.486;7.562;2023-08-30T10:47:31;10.05;;;3.72;;
31760;SDS011;18335;51.486;7.562;2023-08-30T10:50:05;8.82;;;3.67;;
31760;SDS011;18335;51.486;7.562;2023-08-30T10:52:34;8.73;;;4.15;;
31760;SDS011;18335;51.486;7.562;2023-08-30T10:55:04;7.05;;;3.63;;
31760;SDS011;18335;51.486;7.562;2023-08-30T10:57:32;8.73;;;4.95;;
31760;SDS011;18335;51.486;7.562;2023-08-30T11:00:07;11.20;;;4.95;;
31760;SDS011;18335;51.486;7.562;2023-08-30T11:02:34;11.57;;;5.65;;
31760;SDS011;18335;51.486;7.562;2023-08-30T11:05:02;11.18;;;6.93;;
31760;SDS011;18335;51.486;7.562;2023-08-30T11:07:29;11.48;;;6.95;;
31760;SDS011;18335;51.486;7.562;2023-08-30T11:09:58;11.43;;;6.57;;
31760;SDS011;18335;51.486;7.562;2023-08-30T11:12:25;11.48;;;6.97;;
31760;SDS011;18335;51.486;7.562;2023-08-30T11:14:52;11.95;;;7.57;;
31760;SDS011;18335;51.486;7.562;2023-08-30T11:17:19;15.15;;;7.85;;
31760;SDS011;18335;51.486;7.562;2023-08-30T11:19:49;16.23;;;8.23;;
31760;SDS011;18335;51.486;7.562;2023-08-30T11:22:17;16.35;;;7.90;;
31760;SDS011;18335;51.486;7.562;2023-08-30T11:24:45;16.52;;;8.25;;
31760;SDS011;18335;51.486;7.562;2023-08-30T11:27:16;11.18;;;8.00;;
31760;SDS011;18335;51.486;7.562;2023-08-30T11:29:43;12.00;;;7.90;;
31760;SDS011;18335;51.486;7.562;2023-08-30T11:32:10;13.38;;;8.05;;
31760;SDS011;18335;51.486;7.562;2023-08-30T11:34:37;10.50;;;5.97;;
31760;SDS011;18335;51.486;7.562;2023-08-30T11:37:03;10.27;;;4.65;;
31760;SDS011;18335;51.486;7.562;2023-08-30T11:39:30;10.60;;;5.68;;
31760;SDS011;18335;51.486;7.562;2023-08-30T11:41:57;9.00;;;5.03;;
31760;SDS011;18335;51.486;7.562;2023-08-30T11:44:25;11.07;;;5.78;;
31760;SDS011;18335;51.486;7.562;2023-08-30T11:46:57;10.18;;;5.55;;
31760;SDS011;18335;51.486;7.562;2023-08-30T11:49:24;11.93;;;4.80;;
31760;SDS011;18335;51.486;7.562;2023-08-30T11:51:51;11.68;;;4.93;;
31760;SDS011;18335;51.486;7.562;2023-08-30T11:54:18;11.15;;;5.22;;
31760;SDS011;18335;51.486;7.562;2023-08-30T11:56:46;10.18;;;5.22;;
31760;SDS011;18335;51.486;7.562;2023-08-30T11:59:18;10.68;;;5.25;;
31760;SDS011;18335;51.486;7.562;2023-08-30T12:01:47;9.35;;;5.15;;
31760;SDS011;18335;51.486;7.562;2023-08-30T12:04:14;12.20;;;5.28;;
31760;SDS011;18335;51.486;7.562;2023-08-30T12:06:43;8.65;;;4.65;;
31760;SDS011;18335;51.486;7.562;2023-08-30T12:09:14;12.77;;;5.03;;
31760;SDS011;18335;51.486;7.562;2023-08-30T12:11:40;12.07;;;5.72;;
31760;SDS011;18335;51.486;7.562;2023-08-30T12:14:07;11.02;;;5.13;;
31760;SDS011;18335;51.486;7.562;2023-08-30T12:16:34;11.32;;;5.80;;
31760;SDS011;18335;51.486;7.562;2023-08-30T12:19:09;9.10;;;4.85;;
31760;SDS011;18335;51.486;7.562;2023-08-30T12:21:40;13.05;;;6.82;;
31760;SDS011;18335;51.486;7.562;2023-08-30T12:24:07;10.13;;;5.72;;
31760;SDS011;18335;51.486;7.562;2023-08-30T12:26:34;17.50;;;6.35;;
31760;SDS011;18335;51.486;7.562;2023-08-30T12:29:03;14.07;;;6.07;;
31760;SDS011;18335;51.486;7.562;2023-08-30T12:31:30;11.15;;;6.50;;
31760;SDS011;18335;51.486;7.562;2023-08-30T12:33:57;13.60;;;6.18;;
31760;SDS011;18335;51.486;7.562;2023-08-30T12:36:25;11.30;;;6.68;;
31760;SDS011;18335;51.486;7.562;2023-08-30T12:38:52;13.48;;;6.53;;
31760;SDS011;18335;51.486;7.562;2023-08-30T12:41:19;11.82;;;4.88;;
31760;SDS011;18335;51.486;7.562;2023-08-30T12:43:48;10.85;;;4.97;;
31760;SDS011;18335;51.486;7.562;2023-08-30T12:46:15;8.85;;;4.22;;
31760;SDS011;18335;51.486;7.562;2023-08-30T12:48:42;7.22;;;3.67;;
31760;SDS011;18335;51.486;7.562;2023-08-30T12:51:09;8.45;;;3.50;;
31760;SDS011;18335;51.486;7.562;2023-08-30T12:53:37;5.93;;;2.40;;
31760;SDS011;18335;51.486;7.562;2023-08-30T12:56:04;7.40;;;2.70;;
31760;SDS011;18335;51.486;7.562;2023-08-30T12:58:30;7.05;;;2.35;;
31760;SDS011;18335;51.486;7.562;2023-08-30T13:00:57;5.65;;;2.45;;
31760;SDS011;18335;51.486;7.562;2023-08-30T13:03:24;4.97;;;1.73;;
31760;SDS011;18335;51.486;7.562;2023-08-30T13:05:51;5.20;;;1.65;;
31760;SDS011;18335;51.486;7.562;2023-08-30T13:08:17;2.75;;;1.20;;
31760;SDS011;18335;51.486;7.562;2023-08-30T13:10:46;3.15;;;1.48;;
31760;SDS011;18335;51.486;7.562;2023-08-30T13:13:12;3.75;;;1.50;;
31760;SDS011;18335;51.486;7.562;2023-08-30T13:15:39;3.85;;;1.70;;
31760;SDS011;18335;51.486;7.562;2023-08-30T13:18:06;3.03;;;1.25;;
31760;SDS011;18335;51.486;7.562;2023-08-30T13:20:37;2.58;;;1.50;;
31760;SDS011;18335;51.486;7.562;2023-08-30T13:23:04;2.25;;;1.10;;
31760;SDS011;18335;51.486;7.562;2023-08-30T13:25:31;3.72;;;1.20;;
31760;SDS011;18335;51.486;7.562;2023-08-30T13:27:59;3.83;;;1.42;;
31760;SDS011;18335;51.486;7.562;2023-08-30T13:30:26;2.70;;;1.20;;
31760;SDS011;18335;51.486;7.562;2023-08-30T13:32:53;4.18;;;1.27;;
31760;SDS011;18335;51.486;7.562;2023-08-30T13:35:19;3.08;;;1.67;;
31760;SDS011;18335;51.486;7.562;2023-08-30T13:37:46;3.03;;;1.45;;
31760;SDS011;18335;51.486;7.562;2023-08-30T13:40:13;2.28;;;1.27;;
31760;SDS011;18335;51.486;7.562;2023-08-30T13:42:40;2.22;;;1.30;;
31760;SDS011;18335;51.486;7.562;2023-08-30T13:45:08;3.33;;;1.00;;
31760;SDS011;18335;51.486;7.562;2023-08-30T13:47:35;3.40;;;1.30;;
31760;SDS011;18335;51.486;7.562;2023-08-30T13:50:02;3.65;;;1.20;;
31760;SDS011;18335;51.486;7.562;2023-08-30T13:52:30;3.00;;;1.48;;
31760;SDS011;18335;51.486;7.562;2023-08-30T13:54:58;5.03;;;1.35;;
31760;SDS011;18335;51.486;7.562;2023-08-30T13:57:25;3.00;;;1.67;;
31760;SDS011;18335;51.486;7.562;2023-08-30T13:59:52;4.75;;;2.13;;
31760;SDS011;18335;51.486;7.562;2023-08-30T14:02:20;3.83;;;1.50;;
31760;SDS011;18335;51.486;7.562;2023-08-30T14:04:47;4.22;;;1.10;;
31760;SDS011;18335;51.486;7.562;2023-08-30T14:07:14;3.80;;;1.58;;
31760;SDS011;18335;51.486;7.562;2023-08-30T14:09:41;3.40;;;1.67;;
31760;SDS011;18335;51.486;7.562;2023-08-30T14:12:08;3.42;;;1.60;;
31760;SDS011;18335;51.486;7.562;2023-08-30T14:14:35;4.97;;;2.05;;
31760;SDS011;18335;51.486;7.562;2023-08-30T14:17:02;6.40;;;1.85;;
31760;SDS011;18335;51.486;7.562;2023-08-30T14:19:30;6.50;;;1.80;;
31760;SDS011;18335;51.486;7.562;2023-08-30T14:21:59;4.95;;;1.90;;
31760;SDS011;18335;51.486;7.562;2023-08-30T14:24:28;3.58;;;1.60;;
31760;SDS011;18335;51.486;7.562;2023-08-30T14:26:54;3.58;;;1.70;;
31760;SDS011;18335;51.486;7.562;2023-08-30T14:29:21;3.30;;;1.42;;
31760;SDS011;18335;51.486;7.562;2023-08-30T14:31:48;3.55;;;1.77;;
31760;SDS011;18335;51.486;7.562;2023-08-30T14:34:15;3.38;;;1.45;;
31760;SDS011;18335;51.486;7.562;2023-08-30T14:36:43;4.50;;;1.63;;
31760;SDS011;18335;51.486;7.562;2023-08-30T14:39:11;4.30;;;1.83;;